Time;durP1;ratioP1;P1;durP2;ratioP2;P2;SDS_P1;SDS_P2;PMS_P1;PMS_P2;Temp;Humidity;BMP_temperature;BMP_pressure;BME280_temperature;BME280_humidity;BME280_pressure;Samples;Min_cycle;Max_cycle;Signal;HPM_P1;HPM_P2
2019/10/26 00:00:04;;;;;;;1.91;1.67;;;;;;;20.13;59.25;101117.20;;;;-52
2019/10/26 00:03:04;;;;;;;2.02;1.79;;;;;;;20.13;59.21;101118.20;;;;-56
2019/10/26 00:06:04;;;;;;;1.80;1.70;;;;;;;20.14;59.20;101117.97;;;;-56
2019/10/26 00:09:04;;;;;;;1.91;1.76;;;;;;;20.14;59.21;101117.08;;;;-52
2019/10/26 00:12:04;;;;;;;1.84;1.74;;;;;;;20.13;59.13;101111.22;;;;-56
2019/10/26 00:15:04;;;;;;;1.74;1.64;;;;;;;20.13;59.18;101107.70;;;;-55
2019/10/26 00:18:04;;;;;;;1.73;1.60;;;;;;;20.12;59.22;101110.27;;;;-54
2019/10/26 00:21:04;;;;;;;1.77;1.67;;;;;;;20.12;59.23;101104.12;;;;-54
2019/10/26 00:24:04;;;;;;;1.87;1.75;;;;;;;20.11;59.15;101103.68;;;;-54
2019/10/26 00:28:04;;;;;;;1.89;1.79;;;;;;;20.10;59.22;101094.47;;;;-54
2019/10/26 00:31:04;;;;;;;1.77;1.67;;;;;;;20.10;59.26;101094.06;;;;-52
2019/10/26 00:35:04;;;;;;;1.95;1.79;;;;;;;20.10;59.22;101097.64;;;;-54
2019/10/26 00:38:04;;;;;;;2.03;1.84;;;;;;;20.09;59.24;101096.93;;;;-54
2019/10/26 00:41:04;;;;;;;1.74;1.64;;;;;;;20.09;59.26;101090.88;;;;-56
2019/10/26 00:44:04;;;;;;;1.97;1.58;;;;;;;20.08;59.20;101091.11;;;;-60
2019/10/26 00:47:04;;;;;;;1.71;1.61;;;;;;;20.07;59.24;101086.80;;;;-56
2019/10/26 00:50:04;;;;;;;1.75;1.65;;;;;;;20.08;59.20;101089.00;;;;-55
2019/10/26 00:53:04;;;;;;;1.81;1.71;;;;;;;20.07;59.23;101087.70;;;;-52
2019/10/26 00:56:04;;;;;;;1.89;1.77;;;;;;;20.07;59.23;101085.52;;;;-60
2019/10/26 00:59:04;;;;;;;2.24;1.61;;;;;;;20.07;59.23;101082.50;;;;-55
2019/10/26 01:02:04;;;;;;;1.66;1.56;;;;;;;20.06;59.22;101080.45;;;;-51
2019/10/26 01:05:04;;;;;;;1.60;1.50;;;;;;;20.06;59.23;101082.38;;;;-54
2019/10/26 01:08:04;;;;;;;1.79;1.69;;;;;;;20.06;59.24;101085.91;;;;-53
2019/10/26 01:11:04;;;;;;;1.72;1.62;;;;;;;20.05;59.28;101084.08;;;;-56
2019/10/26 01:14:04;;;;;;;1.89;1.78;;;;;;;20.05;59.18;101081.22;;;;-56
2019/10/26 01:17:04;;;;;;;1.70;1.60;;;;;;;20.06;59.21;101080.50;;;;-54
2019/10/26 01:20:04;;;;;;;1.81;1.70;;;;;;;20.05;59.22;101074.07;;;;-60
2019/10/26 01:23:04;;;;;;;1.73;1.63;;;;;;;20.04;59.22;101069.77;;;;-54
2019/10/26 01:26:04;;;;;;;1.99;1.57;;;;;;;20.04;59.23;101070.94;;;;-56
2019/10/26 01:29:04;;;;;;;1.78;1.65;;;;;;;20.03;59.26;101069.48;;;;-56
2019/10/26 01:32:04;;;;;;;1.75;1.65;;;;;;;20.03;59.17;101064.19;;;;-53
2019/10/26 01:35:04;;;;;;;1.81;1.70;;;;;;;20.03;59.14;101069.05;;;;-51
2019/10/26 01:38:04;;;;;;;1.80;1.70;;;;;;;20.03;59.22;101069.72;;;;-52
2019/10/26 01:41:04;;;;;;;1.81;1.71;;;;;;;20.02;59.24;101069.09;;;;-52
2019/10/26 01:44:04;;;;;;;1.72;1.62;;;;;;;20.02;59.19;101067.92;;;;-55
2019/10/26 01:47:23;;;;;;;1.63;1.53;;;;;;;20.02;59.21;101066.70;;;;-55
2019/10/26 01:50:38;;;;;;;1.81;1.71;;;;;;;20.01;59.22;101062.91;;;;-53
2019/10/26 01:53:07;;;;;;;1.71;1.61;;;;;;;20.01;59.25;101060.33;;;;-52
2019/10/26 01:56:04;;;;;;;1.79;1.66;;;;;;;20.01;59.21;101058.05;;;;-56
2019/10/26 01:59:04;;;;;;;1.70;1.60;;;;;;;20.01;59.21;101055.25;;;;-54
2019/10/26 02:02:04;;;;;;;2.11;1.73;;;;;;;20.00;59.19;101054.14;;;;-55
2019/10/26 02:05:04;;;;;;;1.74;1.64;;;;;;;20.00;59.24;101051.22;;;;-52
2019/10/26 02:08:04;;;;;;;1.65;1.55;;;;;;;20.00;59.26;101047.94;;;;-52
2019/10/26 02:11:04;;;;;;;1.69;1.59;;;;;;;20.00;59.24;101042.46;;;;-56
2019/10/26 02:14:04;;;;;;;1.65;1.55;;;;;;;20.00;59.24;101036.20;;;;-54
2019/10/26 02:17:04;;;;;;;1.69;1.59;;;;;;;19.99;59.24;101029.38;;;;-52
2019/10/26 02:20:04;;;;;;;1.68;1.58;;;;;;;19.99;59.22;101030.28;;;;-55
2019/10/26 02:23:04;;;;;;;1.70;1.60;;;;;;;19.98;59.21;101027.75;;;;-54
2019/10/26 02:26:04;;;;;;;1.60;1.50;;;;;;;19.98;59.26;101025.89;;;;-52
2019/10/26 02:29:04;;;;;;;1.75;1.65;;;;;;;19.98;59.15;101022.04;;;;-55
2019/10/26 02:32:04;;;;;;;1.60;1.50;;;;;;;19.97;59.21;101018.67;;;;-56
2019/10/26 02:35:04;;;;;;;1.69;1.59;;;;;;;19.97;59.21;101015.93;;;;-54
2019/10/26 02:38:04;;;;;;;1.73;1.63;;;;;;;19.97;59.20;101014.61;;;;-60
2019/10/26 02:41:04;;;;;;;1.73;1.63;;;;;;;19.97;59.20;101012.24;;;;-51
2019/10/26 02:44:04;;;;;;;1.85;1.75;;;;;;;19.96;59.13;101018.12;;;;-54
2019/10/26 02:47:04;;;;;;;1.61;1.51;;;;;;;19.97;59.21;101018.23;;;;-53
2019/10/26 02:51:04;;;;;;;1.93;1.60;;;;;;;19.96;59.23;101014.50;;;;-55
2019/10/26 02:54:04;;;;;;;1.69;1.59;;;;;;;19.96;59.20;101017.39;;;;-56
2019/10/26 02:57:04;;;;;;;1.70;1.60;;;;;;;19.95;59.16;101017.17;;;;-60
2019/10/26 03:00:04;;;;;;;1.71;1.61;;;;;;;19.94;59.23;101017.28;;;;-56
2019/10/26 03:03:03;;;;;;;1.80;1.70;;;;;;;19.95;59.18;101019.52;;;;-52
2019/10/26 03:06:03;;;;;;;1.81;1.71;;;;;;;19.94;59.20;101016.57;;;;-54
2019/10/26 03:09:04;;;;;;;3.02;1.76;;;;;;;19.94;59.19;101018.62;;;;-55
2019/10/26 03:12:03;;;;;;;1.69;1.59;;;;;;;19.94;59.17;101023.16;;;;-53
2019/10/26 03:15:03;;;;;;;1.79;1.69;;;;;;;19.94;59.18;101022.38;;;;-52
2019/10/26 03:18:45;;;;;;;1.73;1.63;;;;;;;19.94;59.17;101026.30;;;;-61
2019/10/26 03:21:07;;;;;;;1.70;1.60;;;;;;;19.93;59.20;101023.44;;;;-54
2019/10/26 03:24:24;;;;;;;1.58;1.48;;;;;;;19.93;59.17;101023.23;;;;-52
2019/10/26 03:27:04;;;;;;;1.99;1.61;;;;;;;19.92;59.22;101018.25;;;;-52
2019/10/26 03:30:04;;;;;;;1.70;1.60;;;;;;;19.93;59.18;101018.14;;;;-56
2019/10/26 03:33:03;;;;;;;1.59;1.49;;;;;;;19.92;59.18;101015.34;;;;-52
2019/10/26 03:36:03;;;;;;;1.69;1.59;;;;;;;19.92;59.18;101014.73;;;;-61
2019/10/26 03:39:03;;;;;;;1.69;1.59;;;;;;;19.91;59.19;101010.09;;;;-54
2019/10/26 03:42:03;;;;;;;1.70;1.60;;;;;;;19.92;59.17;101011.00;;;;-52
2019/10/26 03:45:03;;;;;;;1.55;1.45;;;;;;;19.91;59.17;101014.84;;;;-55
2019/10/26 03:48:03;;;;;;;1.71;1.61;;;;;;;19.91;59.17;101017.86;;;;-61
2019/10/26 03:51:04;;;;;;;2.23;1.67;;;;;;;19.92;59.16;101019.16;;;;-60
2019/10/26 03:54:04;;;;;;;1.71;1.61;;;;;;;19.91;59.13;101021.11;;;;-56
2019/10/26 03:57:03;;;;;;;1.73;1.63;;;;;;;19.90;59.19;101012.89;;;;-56
2019/10/26 04:00:03;;;;;;;2.12;1.56;;;;;;;19.90;59.14;101017.98;;;;-60
2019/10/26 04:03:04;;;;;;;1.67;1.57;;;;;;;19.90;59.19;101019.72;;;;-55
2019/10/26 04:06:04;;;;;;;1.64;1.54;;;;;;;19.90;59.15;101018.98;;;;-56
2019/10/26 04:09:04;;;;;;;1.59;1.49;;;;;;;19.90;59.16;101023.00;;;;-55
2019/10/26 04:12:04;;;;;;;1.71;1.61;;;;;;;19.90;59.17;101026.19;;;;-60
2019/10/26 04:15:03;;;;;;;1.60;1.50;;;;;;;19.89;59.18;101022.61;;;;-52
2019/10/26 04:18:03;;;;;;;1.68;1.50;;;;;;;19.89;59.17;101020.17;;;;-60
2019/10/26 04:21:03;;;;;;;1.60;1.50;;;;;;;19.89;59.13;101023.56;;;;-54
2019/10/26 04:24:03;;;;;;;1.68;1.58;;;;;;;19.88;59.10;101018.54;;;;-56
2019/10/26 04:27:04;;;;;;;1.70;1.60;;;;;;;19.88;59.15;101017.20;;;;-60
2019/10/26 04:30:04;;;;;;;1.84;1.72;;;;;;;19.89;59.06;101020.77;;;;-51
2019/10/26 04:33:04;;;;;;;1.69;1.59;;;;;;;19.90;59.16;101022.78;;;;-52
2019/10/26 04:36:04;;;;;;;3.04;1.66;;;;;;;19.91;59.16;101021.22;;;;-50
2019/10/26 04:39:03;;;;;;;1.75;1.61;;;;;;;19.92;59.08;101018.69;;;;-60
2019/10/26 04:42:03;;;;;;;2.67;1.63;;;;;;;19.94;59.13;101021.98;;;;-60
2019/10/26 04:45:04;;;;;;;1.79;1.69;;;;;;;19.97;59.13;101021.30;;;;-61
2019/10/26 04:48:03;;;;;;;1.91;1.73;;;;;;;20.01;59.10;101017.07;;;;-49
2019/10/26 04:51:03;;;;;;;1.81;1.70;;;;;;;20.04;59.04;101011.75;;;;-50
2019/10/26 04:54:03;;;;;;;2.21;1.67;;;;;;;20.07;59.08;101010.80;;;;-50
2019/10/26 04:57:03;;;;;;;2.18;1.82;;;;;;;20.09;58.86;101008.33;;;;-51
2019/10/26 05:00:03;;;;;;;2.85;1.80;;;;;;;20.11;58.85;101006.75;;;;-53
2019/10/26 05:03:04;;;;;;;3.07;1.81;;;;;;;20.13;58.83;101005.17;;;;-53
2019/10/26 05:06:03;;;;;;;1.80;1.70;;;;;;;20.16;58.83;101012.27;;;;-59
2019/10/26 05:09:04;;;;;;;1.90;1.61;;;;;;;20.19;58.78;101016.60;;;;-51
2019/10/26 05:12:03;;;;;;;1.90;1.70;;;;;;;20.21;58.78;101012.18;;;;-53
2019/10/26 05:15:03;;;;;;;2.11;1.70;;;;;;;20.24;58.73;101012.63;;;;-53
2019/10/26 05:18:04;;;;;;;1.96;1.75;;;;;;;20.25;58.79;101012.48;;;;-51
2019/10/26 05:21:03;;;;;;;2.13;1.65;;;;;;;20.28;58.76;101015.05;;;;-59
2019/10/26 05:24:03;;;;;;;2.49;1.76;;;;;;;20.30;58.80;101011.56;;;;-52
2019/10/26 05:27:04;;;;;;;1.96;1.70;;;;;;;20.33;58.84;101019.22;;;;-59
2019/10/26 05:30:03;;;;;;;1.67;1.57;;;;;;;20.34;58.80;101017.44;;;;-53
2019/10/26 05:33:03;;;;;;;1.79;1.69;;;;;;;20.36;58.81;101014.01;;;;-53
2019/10/26 05:36:03;;;;;;;2.64;1.60;;;;;;;20.37;58.74;101009.96;;;;-52
2019/10/26 05:39:04;;;;;;;1.63;1.52;;;;;;;20.39;58.87;101011.91;;;;-59
2019/10/26 05:42:03;;;;;;;2.37;1.75;;;;;;;20.41;58.84;101017.77;;;;-58
2019/10/26 05:45:03;;;;;;;1.63;1.53;;;;;;;20.42;58.84;101017.83;;;;-53
2019/10/26 05:48:03;;;;;;;1.79;1.67;;;;;;;20.43;58.77;101019.66;;;;-58
2019/10/26 05:51:03;;;;;;;2.65;1.73;;;;;;;20.44;58.75;101024.41;;;;-53
2019/10/26 05:54:48;;;;;;;1.60;1.50;;;;;;;20.45;58.74;101024.59;;;;-59
2019/10/26 05:57:04;;;;;;;1.98;1.69;;;;;;;20.46;58.69;101029.33;;;;-51
2019/10/26 06:00:03;;;;;;;1.75;1.65;;;;;;;20.46;58.61;101036.88;;;;-50
2019/10/26 06:03:03;;;;;;;1.71;1.59;;;;;;;20.46;58.75;101036.72;;;;-53
2019/10/26 06:06:03;;;;;;;1.69;1.59;;;;;;;20.47;58.76;101041.22;;;;-51
2019/10/26 06:09:03;;;;;;;2.05;1.60;;;;;;;20.47;58.72;101042.07;;;;-52
2019/10/26 06:12:04;;;;;;;1.61;1.51;;;;;;;20.47;58.72;101046.66;;;;-52
2019/10/26 06:15:04;;;;;;;1.65;1.55;;;;;;;20.47;58.73;101047.11;;;;-59
2019/10/26 06:18:04;;;;;;;1.71;1.60;;;;;;;20.47;58.69;101046.26;;;;-51
2019/10/26 06:21:03;;;;;;;1.66;1.50;;;;;;;20.47;58.62;101052.97;;;;-51
2019/10/26 06:24:03;;;;;;;1.70;1.60;;;;;;;20.48;58.63;101054.60;;;;-53
2019/10/26 06:27:03;;;;;;;1.69;1.57;;;;;;;20.47;58.64;101048.61;;;;-53
2019/10/26 06:30:03;;;;;;;2.10;1.57;;;;;;;20.47;58.59;101052.64;;;;-50
2019/10/26 06:33:03;;;;;;;1.99;1.50;;;;;;;20.46;58.55;101049.63;;;;-52
2019/10/26 06:36:04;;;;;;;1.70;1.60;;;;;;;20.46;58.42;101054.67;;;;-59
2019/10/26 06:39:04;;;;;;;1.65;1.50;;;;;;;20.47;58.53;101061.36;;;;-51
2019/10/26 06:42:03;;;;;;;1.54;1.44;;;;;;;20.46;58.53;101063.50;;;;-53
2019/10/26 06:45:03;;;;;;;1.58;1.48;;;;;;;20.45;58.39;101061.16;;;;-53
2019/10/26 06:48:03;;;;;;;1.67;1.57;;;;;;;20.45;58.45;101061.59;;;;-53
2019/10/26 06:51:04;;;;;;;1.68;1.58;;;;;;;20.45;58.40;101060.59;;;;-58
2019/10/26 06:54:04;;;;;;;1.62;1.50;;;;;;;20.44;58.43;101056.63;;;;-58
2019/10/26 06:57:04;;;;;;;1.83;1.60;;;;;;;20.44;58.49;101052.32;;;;-58
2019/10/26 07:00:04;;;;;;;1.50;1.40;;;;;;;20.44;58.44;101054.06;;;;-52
2019/10/26 07:03:03;;;;;;;1.61;1.51;;;;;;;20.43;58.43;101057.41;;;;-53
2019/10/26 07:06:03;;;;;;;1.68;1.58;;;;;;;20.44;58.46;101062.55;;;;-52
2019/10/26 07:09:04;;;;;;;1.68;1.58;;;;;;;20.43;58.49;101063.34;;;;-58
2019/10/26 07:12:04;;;;;;;1.83;1.53;;;;;;;20.42;58.50;101062.56;;;;-59
2019/10/26 07:15:04;;;;;;;1.80;1.70;;;;;;;20.42;58.48;101063.47;;;;-52
2019/10/26 07:18:03;;;;;;;1.60;1.50;;;;;;;20.43;58.46;101064.84;;;;-53
2019/10/26 07:21:03;;;;;;;1.70;1.60;;;;;;;20.43;58.44;101069.21;;;;-59
2019/10/26 07:24:03;;;;;;;1.70;1.60;;;;;;;20.42;58.47;101068.33;;;;-52
2019/10/26 07:27:03;;;;;;;1.70;1.60;;;;;;;20.42;58.45;101068.10;;;;-51
2019/10/26 07:30:03;;;;;;;1.60;1.50;;;;;;;20.43;58.40;101067.36;;;;-53
2019/10/26 07:33:03;;;;;;;1.65;1.55;;;;;;;20.42;58.44;101063.06;;;;-53
2019/10/26 07:36:11;;;;;;;1.61;1.51;;;;;;;20.43;58.47;101057.64;;;;-51
2019/10/26 07:39:04;;;;;;;1.63;1.53;;;;;;;20.42;58.46;101060.72;;;;-53
2019/10/26 07:42:03;;;;;;;1.69;1.59;;;;;;;20.43;58.44;101059.31;;;;-53
2019/10/26 07:45:03;;;;;;;1.79;1.69;;;;;;;20.43;58.42;101060.16;;;;-53
2019/10/26 07:48:03;;;;;;;1.64;1.54;;;;;;;20.42;58.45;101060.61;;;;-52
2019/10/26 07:51:03;;;;;;;1.67;1.57;;;;;;;20.43;58.43;101059.48;;;;-52
2019/10/26 07:54:03;;;;;;;1.65;1.55;;;;;;;20.43;58.42;101060.16;;;;-52
2019/10/26 07:57:04;;;;;;;1.60;1.50;;;;;;;20.43;58.42;101060.48;;;;-52
2019/10/26 08:00:03;;;;;;;2.32;1.57;;;;;;;20.43;58.38;101058.38;;;;-52
2019/10/26 08:03:03;;;;;;;1.67;1.57;;;;;;;20.43;58.39;101064.25;;;;-52
2019/10/26 08:06:03;;;;;;;1.75;1.51;;;;;;;20.43;58.43;101066.27;;;;-52
2019/10/26 08:09:03;;;;;;;1.73;1.63;;;;;;;20.43;58.41;101063.18;;;;-51
2019/10/26 08:12:03;;;;;;;2.05;1.65;;;;;;;20.43;58.40;101060.44;;;;-53
2019/10/26 08:15:03;;;;;;;1.78;1.68;;;;;;;20.43;58.37;101057.30;;;;-52
2019/10/26 08:18:03;;;;;;;2.37;1.59;;;;;;;20.42;58.49;101055.98;;;;-50
2019/10/26 08:21:04;;;;;;;3.37;1.69;;;;;;;20.44;58.73;101055.11;;;;-52
2019/10/26 08:24:04;;;;;;;2.27;1.67;;;;;;;20.46;58.72;101051.91;;;;-51
2019/10/26 08:27:03;;;;;;;2.09;1.52;;;;;;;20.47;58.76;101047.27;;;;-51
2019/10/26 08:30:03;;;;;;;3.36;1.72;;;;;;;20.48;58.78;101042.92;;;;-52
2019/10/26 08:33:03;;;;;;;3.09;2.19;;;;;;;20.50;58.16;101034.80;;;;-48
2019/10/26 08:36:03;;;;;;;3.37;2.36;;;;;;;20.51;57.97;101027.90;;;;-54
2019/10/26 08:39:04;;;;;;;3.19;1.87;;;;;;;20.49;58.28;101024.34;;;;-53
2019/10/26 08:42:03;;;;;;;2.17;1.90;;;;;;;20.50;58.41;101019.63;;;;-51
2019/10/26 08:45:03;;;;;;;3.31;1.80;;;;;;;20.50;58.50;101022.75;;;;-52
2019/10/26 08:48:03;;;;;;;3.62;1.91;;;;;;;20.52;58.53;101030.87;;;;-51
2019/10/26 08:51:03;;;;;;;3.17;1.79;;;;;;;20.52;58.58;101030.91;;;;-50
2019/10/26 08:54:03;;;;;;;2.73;1.81;;;;;;;20.55;58.63;101035.88;;;;-50
2019/10/26 08:57:03;;;;;;;2.49;1.81;;;;;;;20.55;58.64;101037.67;;;;-49
2019/10/26 09:00:03;;;;;;;2.31;1.84;;;;;;;20.56;58.68;101035.26;;;;-50
2019/10/26 09:03:04;;;;;;;2.33;1.81;;;;;;;20.57;58.65;101038.16;;;;-48
2019/10/26 09:06:03;;;;;;;3.07;1.87;;;;;;;20.58;58.54;101037.31;;;;-48
2019/10/26 09:09:03;;;;;;;3.19;1.90;;;;;;;20.57;58.57;101040.28;;;;-48
2019/10/26 09:12:03;;;;;;;6.45;1.92;;;;;;;20.56;58.69;101032.91;;;;-49
2019/10/26 09:15:04;;;;;;;2.99;1.91;;;;;;;20.58;58.57;101024.83;;;;-49
2019/10/26 09:18:04;;;;;;;2.92;1.91;;;;;;;20.59;58.50;101021.64;;;;-48
2019/10/26 09:21:03;;;;;;;2.25;1.78;;;;;;;20.59;58.48;101022.19;;;;-48
2019/10/26 09:24:03;;;;;;;3.40;1.93;;;;;;;20.62;58.51;101023.74;;;;-48
2019/10/26 09:27:03;;;;;;;3.53;1.94;;;;;;;20.62;58.43;101021.73;;;;-53
2019/10/26 09:30:03;;;;;;;2.48;1.93;;;;;;;20.62;58.07;101018.47;;;;-50
2019/10/26 09:33:04;;;;;;;2.22;1.88;;;;;;;20.61;58.36;101015.37;;;;-51
2019/10/26 09:36:03;;;;;;;5.07;2.19;;;;;;;20.60;58.27;101007.09;;;;-53
2019/10/26 09:39:03;;;;;;;4.45;2.10;;;;;;;20.61;58.00;101005.73;;;;-51
2019/10/26 09:42:03;;;;;;;3.59;1.91;;;;;;;20.63;58.19;101008.75;;;;-51
2019/10/26 09:45:03;;;;;;;6.33;2.03;;;;;;;20.63;58.10;101013.56;;;;-49
2019/10/26 09:48:03;;;;;;;3.31;1.89;;;;;;;20.64;58.21;101014.67;;;;-49
2019/10/26 09:51:03;;;;;;;2.86;2.01;;;;;;;20.63;58.06;101013.11;;;;-51
2019/10/26 09:54:04;;;;;;;7.06;2.11;;;;;;;20.62;58.27;101015.25;;;;-54
2019/10/26 09:57:04;;;;;;;3.27;2.11;;;;;;;20.61;58.22;101012.62;;;;-53
2019/10/26 10:00:03;;;;;;;6.11;2.05;;;;;;;20.60;58.22;101009.11;;;;-52
2019/10/26 10:03:04;;;;;;;3.45;2.02;;;;;;;20.60;58.20;101009.05;;;;-52
2019/10/26 10:06:03;;;;;;;2.47;1.93;;;;;;;20.59;58.18;101002.55;;;;-51
2019/10/26 10:09:03;;;;;;;3.03;2.09;;;;;;;20.60;58.19;100997.36;;;;-52
2019/10/26 10:12:03;;;;;;;2.49;1.93;;;;;;;20.59;58.18;100989.80;;;;-52
2019/10/26 10:15:03;;;;;;;2.35;1.91;;;;;;;20.58;58.17;100987.47;;;;-52
2019/10/26 10:18:03;;;;;;;4.01;1.91;;;;;;;20.58;58.10;100987.91;;;;-51
2019/10/26 10:21:03;;;;;;;2.18;1.91;;;;;;;20.57;58.17;100984.91;;;;-51
2019/10/26 10:24:04;;;;;;;2.12;1.87;;;;;;;20.57;58.13;100980.47;;;;-51
2019/10/26 10:27:04;;;;;;;3.28;1.81;;;;;;;20.57;58.16;100982.16;;;;-51
2019/10/26 10:30:03;;;;;;;3.39;1.97;;;;;;;20.56;58.15;100975.97;;;;-51
2019/10/26 10:33:03;;;;;;;2.09;1.90;;;;;;;20.56;58.09;100968.68;;;;-51
2019/10/26 10:36:03;;;;;;;2.10;1.90;;;;;;;20.56;58.13;100964.72;;;;-51
2019/10/26 10:39:03;;;;;;;2.57;1.91;;;;;;;20.56;58.16;100963.27;;;;-50
2019/10/26 10:42:03;;;;;;;4.81;1.93;;;;;;;20.55;58.24;100963.84;;;;-50
2019/10/26 10:45:03;;;;;;;3.14;2.03;;;;;;;20.57;58.17;100959.80;;;;-47
2019/10/26 10:48:03;;;;;;;2.28;1.88;;;;;;;20.57;58.21;100954.03;;;;-47
2019/10/26 10:51:03;;;;;;;2.72;1.83;;;;;;;20.58;58.24;100951.89;;;;-48
2019/10/26 10:54:03;;;;;;;5.24;1.94;;;;;;;20.58;58.29;100946.42;;;;-49
2019/10/26 10:57:03;;;;;;;2.93;1.97;;;;;;;20.59;58.37;100946.17;;;;-48
2019/10/26 11:00:04;;;;;;;2.80;1.70;;;;;;;20.59;58.44;100945.90;;;;-51
2019/10/26 11:03:03;;;;;;;3.41;1.87;;;;;;;20.61;58.42;100946.05;;;;-51
2019/10/26 11:06:03;;;;;;;2.64;1.92;;;;;;;20.60;58.34;100939.74;;;;-51
2019/10/26 11:09:04;;;;;;;2.28;1.94;;;;;;;20.61;58.43;100936.26;;;;-54
2019/10/26 11:12:04;;;;;;;3.01;1.79;;;;;;;20.62;58.46;100933.13;;;;-54
2019/10/26 11:15:04;;;;;;;3.15;1.70;;;;;;;20.62;58.46;100925.41;;;;-50
2019/10/26 11:18:03;;;;;;;3.37;1.87;;;;;;;20.64;58.42;100919.68;;;;-54
2019/10/26 11:21:04;;;;;;;2.79;1.98;;;;;;;20.62;58.50;100916.17;;;;-53
2019/10/26 11:24:03;;;;;;;2.25;1.71;;;;;;;20.62;58.45;100910.12;;;;-53
2019/10/26 11:27:03;;;;;;;2.54;1.88;;;;;;;20.60;58.39;100904.67;;;;-54
2019/10/26 11:30:03;;;;;;;8.47;2.06;;;;;;;20.60;58.39;100897.45;;;;-54
2019/10/26 11:33:03;;;;;;;2.45;1.77;;;;;;;20.59;58.35;100899.18;;;;-60
2019/10/26 11:36:03;;;;;;;2.61;1.85;;;;;;;20.59;58.33;100889.61;;;;-60
2019/10/26 11:39:03;;;;;;;3.07;1.84;;;;;;;20.58;58.29;100884.20;;;;-60
2019/10/26 11:42:03;;;;;;;2.16;1.83;;;;;;;20.58;58.30;100882.98;;;;-54
2019/10/26 11:45:03;;;;;;;3.34;1.82;;;;;;;20.57;58.23;100875.99;;;;-60
2019/10/26 11:48:03;;;;;;;2.65;1.85;;;;;;;20.57;58.25;100873.88;;;;-59
2019/10/26 11:51:04;;;;;;;2.87;1.87;;;;;;;20.56;58.24;100868.16;;;;-54
2019/10/26 11:54:03;;;;;;;1.89;1.66;;;;;;;20.57;58.20;100866.70;;;;-60
2019/10/26 11:57:03;;;;;;;2.13;1.73;;;;;;;20.57;58.17;100860.95;;;;-60
2019/10/26 12:00:03;;;;;;;5.01;1.93;;;;;;;20.55;58.22;100853.59;;;;-62
2019/10/26 12:03:03;;;;;;;2.64;1.91;;;;;;;20.54;58.18;100848.27;;;;-60
2019/10/26 12:06:03;;;;;;;3.40;1.80;;;;;;;20.54;58.18;100845.35;;;;-60
2019/10/26 12:09:04;;;;;;;2.39;1.80;;;;;;;20.54;58.21;100844.20;;;;-54
2019/10/26 12:12:03;;;;;;;2.81;1.65;;;;;;;20.53;58.17;100838.49;;;;-62
2019/10/26 12:15:04;;;;;;;1.67;1.57;;;;;;;20.53;58.20;100837.09;;;;-60
2019/10/26 12:18:03;;;;;;;2.50;1.70;;;;;;;20.53;58.22;100840.17;;;;-59
2019/10/26 12:21:03;;;;;;;3.69;1.66;;;;;;;20.51;58.15;100834.54;;;;-54
2019/10/26 12:24:04;;;;;;;2.57;1.63;;;;;;;20.52;58.27;100830.95;;;;-55
2019/10/26 12:27:03;;;;;;;1.84;1.71;;;;;;;20.51;58.25;100823.42;;;;-55
2019/10/26 12:30:03;;;;;;;1.84;1.70;;;;;;;20.50;58.21;100815.64;;;;-53
2019/10/26 12:33:03;;;;;;;2.23;1.83;;;;;;;20.50;58.36;100816.77;;;;-52
2019/10/26 12:36:03;;;;;;;2.61;1.60;;;;;;;20.52;58.25;100811.83;;;;-51
2019/10/26 12:39:03;;;;;;;2.48;1.89;;;;;;;20.52;58.44;100810.70;;;;-58
2019/10/26 12:42:03;;;;;;;2.24;1.80;;;;;;;20.52;58.53;100809.08;;;;-51
2019/10/26 12:45:03;;;;;;;5.27;2.13;;;;;;;20.54;58.49;100805.11;;;;-62
2019/10/26 12:48:03;;;;;;;3.06;1.80;;;;;;;20.54;58.44;100805.55;;;;-63
2019/10/26 12:51:03;;;;;;;2.53;1.70;;;;;;;20.56;58.53;100803.02;;;;-54
2019/10/26 12:54:04;;;;;;;2.17;1.71;;;;;;;20.56;58.51;100798.02;;;;-55
2019/10/26 12:57:03;;;;;;;2.79;1.71;;;;;;;20.57;58.53;100795.05;;;;-51
2019/10/26 13:00:03;;;;;;;2.04;1.70;;;;;;;20.57;58.53;100791.36;;;;-51
2019/10/26 13:03:03;;;;;;;2.20;1.63;;;;;;;20.58;58.56;100791.81;;;;-51
2019/10/26 13:06:03;;;;;;;2.14;1.73;;;;;;;20.58;58.59;100790.13;;;;-56
2019/10/26 13:09:03;;;;;;;2.14;1.69;;;;;;;20.59;58.60;100787.98;;;;-60
2019/10/26 13:12:04;;;;;;;1.75;1.64;;;;;;;20.59;58.63;100788.50;;;;-51
2019/10/26 13:15:03;;;;;;;1.65;1.55;;;;;;;20.60;58.84;100788.88;;;;-63
2019/10/26 13:18:04;;;;;;;3.48;1.63;;;;;;;20.61;58.78;100783.65;;;;-59
2019/10/26 13:21:03;;;;;;;3.58;1.70;;;;;;;20.62;58.82;100776.71;;;;-59
2019/10/26 13:24:03;;;;;;;1.68;1.58;;;;;;;20.63;58.76;100769.60;;;;-50
2019/10/26 13:27:03;;;;;;;2.16;1.69;;;;;;;20.64;58.82;100771.77;;;;-51
2019/10/26 13:30:03;;;;;;;2.49;1.58;;;;;;;20.64;58.88;100764.28;;;;-60
2019/10/26 13:33:03;;;;;;;2.20;1.60;;;;;;;20.66;58.83;100760.84;;;;-50
2019/10/26 13:36:03;;;;;;;2.09;1.63;;;;;;;20.64;58.87;100758.00;;;;-55
2019/10/26 13:39:04;;;;;;;1.81;1.67;;;;;;;20.64;58.92;100757.33;;;;-63
2019/10/26 13:42:03;;;;;;;2.12;1.65;;;;;;;20.64;58.72;100753.37;;;;-55
2019/10/26 13:45:03;;;;;;;1.99;1.55;;;;;;;20.63;58.81;100755.52;;;;-53
2019/10/26 13:48:03;;;;;;;3.45;1.61;;;;;;;20.62;58.75;100751.20;;;;-63
2019/10/26 13:51:03;;;;;;;1.75;1.62;;;;;;;20.61;58.86;100748.54;;;;-52
2019/10/26 13:54:03;;;;;;;3.09;1.60;;;;;;;20.59;58.68;100760.30;;;;-51
2019/10/26 13:57:03;;;;;;;2.31;1.69;;;;;;;20.60;58.66;100759.40;;;;-61
2019/10/26 14:00:04;;;;;;;2.94;1.61;;;;;;;20.59;58.62;100755.54;;;;-51
2019/10/26 14:03:03;;;;;;;2.28;1.65;;;;;;;20.59;58.60;100753.59;;;;-54
2019/10/26 14:06:03;;;;;;;3.61;1.64;;;;;;;20.59;58.56;100745.77;;;;-52
2019/10/26 14:09:03;;;;;;;2.88;1.85;;;;;;;20.58;58.55;100744.92;;;;-61
2019/10/26 14:12:03;;;;;;;2.47;1.69;;;;;;;20.58;58.47;100743.20;;;;-61
2019/10/26 14:15:03;;;;;;;1.78;1.61;;;;;;;20.56;58.53;100747.58;;;;-50
2019/10/26 14:18:04;;;;;;;2.42;1.58;;;;;;;20.56;58.53;100746.58;;;;-51
2019/10/26 14:21:03;;;;;;;2.49;1.70;;;;;;;20.56;58.50;100745.23;;;;-51
2019/10/26 14:24:03;;;;;;;1.97;1.59;;;;;;;20.56;58.51;100747.42;;;;-51
2019/10/26 14:27:03;;;;;;;1.63;1.50;;;;;;;20.56;58.45;100743.39;;;;-61
2019/10/26 14:30:03;;;;;;;1.50;1.40;;;;;;;20.56;58.45;100739.42;;;;-52
2019/10/26 14:33:03;;;;;;;2.67;1.60;;;;;;;20.53;58.51;100730.03;;;;-51
2019/10/26 14:36:03;;;;;;;1.60;1.50;;;;;;;20.53;58.48;100730.20;;;;-54
2019/10/26 14:39:03;;;;;;;1.64;1.54;;;;;;;20.53;58.51;100725.41;;;;-61
2019/10/26 14:42:03;;;;;;;1.77;1.40;;;;;;;20.53;58.43;100722.38;;;;-51
2019/10/26 14:45:03;;;;;;;2.02;1.63;;;;;;;20.52;58.43;100724.41;;;;-61
2019/10/26 14:48:03;;;;;;;2.64;1.64;;;;;;;20.52;58.37;100722.77;;;;-61
2019/10/26 14:51:03;;;;;;;1.59;1.49;;;;;;;20.52;58.40;100720.66;;;;-53
2019/10/26 14:54:04;;;;;;;1.74;1.50;;;;;;;20.51;58.38;100717.70;;;;-52
2019/10/26 14:57:03;;;;;;;2.23;1.48;;;;;;;20.51;58.39;100715.02;;;;-51
2019/10/26 15:00:04;;;;;;;2.91;1.58;;;;;;;20.51;58.38;100703.44;;;;-50
2019/10/26 15:03:03;;;;;;;2.33;1.59;;;;;;;20.50;58.41;100706.91;;;;-50
2019/10/26 15:06:03;;;;;;;1.67;1.54;;;;;;;20.50;58.41;100707.28;;;;-51
2019/10/26 15:09:03;;;;;;;1.73;1.57;;;;;;;20.49;58.37;100705.36;;;;-51
2019/10/26 15:12:04;;;;;;;1.61;1.50;;;;;;;20.50;58.37;100696.20;;;;-51
2019/10/26 15:15:03;;;;;;;2.13;1.50;;;;;;;20.49;58.44;100694.69;;;;-54
2019/10/26 15:18:03;;;;;;;2.61;1.63;;;;;;;20.49;58.44;100697.14;;;;-61
2019/10/26 15:21:03;;;;;;;2.38;1.50;;;;;;;20.47;58.42;100691.02;;;;-61
2019/10/26 15:24:03;;;;;;;1.86;1.47;;;;;;;20.48;58.39;100696.89;;;;-54
2019/10/26 15:27:03;;;;;;;1.55;1.45;;;;;;;20.48;58.39;100696.05;;;;-54
2019/10/26 15:30:03;;;;;;;1.79;1.50;;;;;;;20.47;58.46;100699.97;;;;-54
2019/10/26 15:33:03;;;;;;;1.53;1.40;;;;;;;20.46;58.49;100707.75;;;;-52
2019/10/26 15:36:03;;;;;;;3.55;1.63;;;;;;;20.47;58.66;100710.27;;;;-51
2019/10/26 15:39:03;;;;;;;1.93;1.57;;;;;;;20.47;58.65;100708.34;;;;-51
2019/10/26 15:42:03;;;;;;;2.17;1.46;;;;;;;20.49;58.70;100714.11;;;;-51
2019/10/26 15:45:03;;;;;;;2.01;1.50;;;;;;;20.50;58.73;100712.62;;;;-52
2019/10/26 15:48:03;;;;;;;1.70;1.60;;;;;;;20.50;58.84;100708.77;;;;-51
2019/10/26 15:51:03;;;;;;;1.78;1.47;;;;;;;20.52;58.97;100707.70;;;;-51
2019/10/26 15:54:03;;;;;;;2.52;1.55;;;;;;;20.51;58.98;100704.61;;;;-50
2019/10/26 15:57:03;;;;;;;1.85;1.50;;;;;;;20.52;58.98;100695.62;;;;-51
2019/10/26 16:00:04;;;;;;;2.11;1.41;;;;;;;20.53;58.97;100693.45;;;;-60
2019/10/26 16:03:03;;;;;;;2.23;1.50;;;;;;;20.54;59.10;100693.36;;;;-53
2019/10/26 16:06:03;;;;;;;1.71;1.53;;;;;;;20.53;59.16;100691.95;;;;-53
2019/10/26 16:09:03;;;;;;;1.80;1.51;;;;;;;20.54;59.21;100682.28;;;;-57
2019/10/26 16:12:03;;;;;;;1.97;1.52;;;;;;;20.55;59.13;100682.50;;;;-52
2019/10/26 16:15:03;;;;;;;1.75;1.44;;;;;;;20.56;59.27;100681.64;;;;-59
2019/10/26 16:18:03;;;;;;;2.04;1.50;;;;;;;20.56;59.20;100680.63;;;;-50
2019/10/26 16:21:03;;;;;;;2.37;1.45;;;;;;;20.57;59.16;100680.27;;;;-61
2019/10/26 16:24:03;;;;;;;2.79;1.45;;;;;;;20.58;59.07;100687.20;;;;-52
2019/10/26 16:27:03;;;;;;;3.23;1.41;;;;;;;20.57;59.28;100691.92;;;;-57
2019/10/26 16:30:03;;;;;;;1.87;1.45;;;;;;;20.58;59.25;100696.09;;;;-49
2019/10/26 16:33:03;;;;;;;1.59;1.45;;;;;;;20.59;59.21;100699.11;;;;-58
2019/10/26 16:36:03;;;;;;;1.71;1.60;;;;;;;20.59;59.25;100702.91;;;;-61
2019/10/26 16:39:03;;;;;;;1.78;1.50;;;;;;;20.59;59.21;100705.26;;;;-54
2019/10/26 16:42:03;;;;;;;2.19;1.39;;;;;;;20.59;59.27;100714.33;;;;-57
2019/10/26 16:45:03;;;;;;;2.32;1.45;;;;;;;20.59;59.21;100720.70;;;;-57